createdAt,value
2018-10-21T00:00:42.683Z,83.99
2018-10-21T00:03:09.043Z,84.03
2018-10-21T00:05:35.307Z,84.19
2018-10-21T00:08:01.610Z,84.31
2018-10-21T00:10:27.908Z,84.28
2018-10-21T00:12:54.237Z,85.51
2018-10-21T00:15:20.618Z,84.75
2018-10-21T00:17:46.890Z,84.24
2018-10-21T00:20:13.194Z,83.94
2018-10-21T00:22:39.492Z,83.46
2018-10-21T00:25:05.787Z,83.74
2018-10-21T00:27:32.093Z,85.08
2018-10-21T00:29:58.396Z,83.62
2018-10-21T00:32:24.705Z,84.57
2018-10-21T00:34:51.003Z,83.91
2018-10-21T00:37:17.325Z,84.82
2018-10-21T00:39:43.693Z,85.24
2018-10-21T00:42:10.014Z,83.87
2018-10-21T00:44:36.315Z,84.39
2018-10-21T00:47:02.682Z,84.62
2018-10-21T00:49:29.005Z,85.01
2018-10-21T00:51:55.312Z,84.99
2018-10-21T00:54:21.637Z,84.92
2018-10-21T00:56:47.970Z,85.10
2018-10-21T00:59:14.295Z,83.88
2018-10-21T01:01:40.624Z,83.88
2018-10-21T01:04:07.005Z,84.65
2018-10-21T01:06:33.248Z,83.66
2018-10-21T01:08:59.595Z,84.99
2018-10-21T01:11:25.893Z,84.75
2018-10-21T01:13:52.196Z,84.50
2018-10-21T01:16:18.517Z,83.68
2018-10-21T01:18:44.834Z,83.90
2018-10-21T01:21:11.259Z,83.39
2018-10-21T01:23:37.499Z,83.42
2018-10-21T01:26:03.812Z,83.47
2018-10-21T01:28:30.146Z,82.83
2018-10-21T01:30:56.445Z,83.25
2018-10-21T01:33:22.745Z,83.72
2018-10-21T01:35:49.052Z,83.85
2018-10-21T01:38:15.423Z,84.05
2018-10-21T01:40:41.672Z,83.30
2018-10-21T01:43:07.978Z,84.07
2018-10-21T01:45:34.303Z,83.48
2018-10-21T01:48:00.610Z,83.18
2018-10-21T01:50:26.975Z,83.26
2018-10-21T01:52:53.347Z,84.82
2018-10-21T01:55:19.672Z,84.49
2018-10-21T01:57:46.038Z,84.37
2018-10-21T02:00:12.362Z,83.92
2018-10-21T02:02:38.663Z,83.68
2018-10-21T02:05:04.965Z,83.57
2018-10-21T02:07:31.289Z,82.54
2018-10-21T02:09:57.592Z,83.75
2018-10-21T02:12:23.891Z,84.94
2018-10-21T02:14:50.201Z,84.52
2018-10-21T02:17:16.524Z,83.70
2018-10-21T02:19:42.826Z,84.82
2018-10-21T02:22:09.123Z,85.46
2018-10-21T02:24:35.423Z,85.52
2018-10-21T02:27:01.779Z,86.15
2018-10-21T02:29:28.050Z,86.61
2018-10-21T02:31:54.358Z,87.24
2018-10-21T02:34:20.685Z,87.89
2018-10-21T02:36:47.011Z,88.41
2018-10-21T02:39:13.382Z,88.62
2018-10-21T02:41:39.635Z,88.54
2018-10-21T02:44:05.971Z,88.24
2018-10-21T02:46:32.266Z,88.98
2018-10-21T02:48:58.599Z,89.25
2018-10-21T02:51:24.902Z,89.70
2018-10-21T02:53:51.251Z,90.37
2018-10-21T02:56:17.573Z,90.06
2018-10-21T02:58:43.881Z,89.13
2018-10-21T03:01:10.213Z,88.69
2018-10-21T03:03:36.548Z,88.46
2018-10-21T03:06:02.873Z,89.56
2018-10-21T03:08:29.197Z,89.81
2018-10-21T03:10:55.550Z,90.26
2018-10-21T03:13:21.896Z,90.86
2018-10-21T03:15:48.221Z,91.35
2018-10-21T03:18:14.542Z,92.16
2018-10-21T03:20:40.816Z,90.89
2018-10-21T03:23:07.116Z,90.41
2018-10-21T03:25:33.415Z,89.52
2018-10-21T03:27:59.710Z,88.80
2018-10-21T03:30:26.007Z,90.04
2018-10-21T03:32:52.310Z,89.20
2018-10-21T03:35:18.611Z,89.96
2018-10-21T03:37:44.980Z,89.93
2018-10-21T03:40:11.366Z,89.07
2018-10-21T03:42:37.682Z,89.42
2018-10-21T03:45:04.006Z,89.95
2018-10-21T03:47:30.303Z,89.53
2018-10-21T03:49:56.633Z,89.39
2018-10-21T03:52:22.963Z,90.28
2018-10-21T03:54:49.263Z,89.77
2018-10-21T03:57:15.643Z,89.90
2018-10-21T03:59:41.944Z,89.22
2018-10-21T04:02:08.275Z,88.71
2018-10-21T04:04:34.571Z,88.44
2018-10-21T04:07:00.871Z,89.62
2018-10-21T04:09:27.169Z,89.25
2018-10-21T04:11:53.516Z,88.82
2018-10-21T04:14:19.851Z,88.64
2018-10-21T04:16:46.194Z,89.73
2018-10-21T04:19:12.567Z,88.79
2018-10-21T04:21:38.891Z,88.24
2018-10-21T04:24:05.191Z,87.76
2018-10-21T04:26:31.517Z,87.53
2018-10-21T04:28:57.885Z,87.72
2018-10-21T04:31:24.184Z,89.37
2018-10-21T04:33:50.527Z,89.90
2018-10-21T04:36:16.844Z,90.55
2018-10-21T04:38:43.220Z,90.73
2018-10-21T04:41:09.539Z,91.01
2018-10-21T04:43:35.861Z,90.44
2018-10-21T04:46:02.170Z,90.53
2018-10-21T04:48:28.461Z,90.67
2018-10-21T04:50:54.758Z,90.96
2018-10-21T04:53:21.056Z,91.25
2018-10-21T04:55:47.355Z,91.48
2018-10-21T04:58:13.746Z,91.63
2018-10-21T05:00:40.018Z,92.10
2018-10-21T05:03:06.301Z,91.92
2018-10-21T05:05:32.627Z,91.92
2018-10-21T05:07:58.953Z,91.88
2018-10-21T05:10:25.254Z,92.17
2018-10-21T05:12:51.603Z,92.47
2018-10-21T05:15:17.993Z,92.00
2018-10-21T05:17:44.246Z,91.82
2018-10-21T05:20:10.570Z,91.75
2018-10-21T05:22:36.894Z,91.92
2018-10-21T05:25:03.219Z,92.14
2018-10-21T05:27:29.519Z,92.51
2018-10-21T05:29:55.848Z,92.64
2018-10-21T05:32:22.168Z,92.68
2018-10-21T05:34:48.465Z,92.75
2018-10-21T05:37:14.789Z,92.72
2018-10-21T05:39:41.117Z,92.33
2018-10-21T05:42:07.436Z,92.11
2018-10-21T05:44:33.738Z,91.95
2018-10-21T05:47:00.104Z,91.71
2018-10-21T05:49:26.425Z,91.47
2018-10-21T05:51:52.797Z,91.80
2018-10-21T05:54:19.090Z,91.64
2018-10-21T05:56:45.392Z,90.99
2018-10-21T05:59:11.730Z,91.17
2018-10-21T06:01:38.057Z,91.33
2018-10-21T06:04:04.379Z,91.10
2018-10-21T06:06:30.660Z,91.09
2018-10-21T06:08:56.985Z,90.60
2018-10-21T06:11:23.350Z,90.73
2018-10-21T06:13:49.668Z,90.81
2018-10-21T06:16:16.023Z,90.85
2018-10-21T06:18:42.271Z,90.54
2018-10-21T06:21:08.573Z,90.20
2018-10-21T06:23:34.935Z,89.90
2018-10-21T06:26:01.205Z,89.53
2018-10-21T06:28:27.507Z,88.99
2018-10-21T06:30:53.803Z,88.69
2018-10-21T06:33:20.151Z,88.06
2018-10-21T06:35:46.480Z,87.91
2018-10-21T06:38:12.824Z,88.02
2018-10-21T06:40:39.154Z,87.89
2018-10-21T06:43:05.504Z,87.74
2018-10-21T06:45:31.891Z,87.33
2018-10-21T06:47:58.179Z,87.12
2018-10-21T06:50:24.475Z,86.56
2018-10-21T06:52:50.802Z,86.24
2018-10-21T06:55:17.134Z,85.52
2018-10-21T06:57:43.544Z,85.58
2018-10-21T07:00:09.783Z,85.29
2018-10-21T07:02:36.159Z,85.43
2018-10-21T07:05:02.483Z,85.49
2018-10-21T07:07:28.860Z,85.62
2018-10-21T07:09:55.213Z,85.50
2018-10-21T07:12:21.526Z,85.51
2018-10-21T07:14:47.845Z,85.48
2018-10-21T07:17:14.301Z,85.08
2018-10-21T07:19:40.595Z,85.32
2018-10-21T07:22:06.934Z,85.38
2018-10-21T07:24:33.230Z,85.01
2018-10-21T07:26:59.524Z,84.77
2018-10-21T07:29:25.860Z,84.53
2018-10-21T07:31:52.191Z,84.03
2018-10-21T07:34:18.563Z,83.23
2018-10-21T07:36:44.822Z,83.20
2018-10-21T07:39:11.120Z,82.28
2018-10-21T07:41:37.423Z,81.03
2018-10-21T07:44:03.732Z,81.50
2018-10-21T07:46:30.094Z,81.10
2018-10-21T07:48:56.445Z,79.76
2018-10-21T07:51:22.725Z,78.39
2018-10-21T07:53:49.625Z,77.94
2018-10-21T07:56:15.929Z,77.84
2018-10-21T07:58:42.246Z,77.81
2018-10-21T08:01:08.582Z,77.59
2018-10-21T08:03:34.875Z,78.40
2018-10-21T08:06:01.225Z,79.34
2018-10-21T08:08:27.608Z,79.49
2018-10-21T08:10:53.884Z,78.27
2018-10-21T08:13:20.210Z,78.27
2018-10-21T08:15:46.507Z,78.12
2018-10-21T08:18:12.833Z,77.47
2018-10-21T08:20:39.166Z,76.58
2018-10-21T08:23:05.507Z,76.73
2018-10-21T08:25:31.830Z,76.68
2018-10-21T08:27:58.204Z,76.61
2018-10-21T08:30:24.562Z,75.36
2018-10-21T08:32:50.880Z,75.84
2018-10-21T08:35:17.197Z,74.77
2018-10-21T08:37:43.518Z,74.44
2018-10-21T08:40:09.953Z,73.56
2018-10-21T08:42:36.215Z,73.80
2018-10-21T08:45:02.556Z,73.44
2018-10-21T08:47:28.851Z,73.96
2018-10-21T08:49:55.188Z,73.68
2018-10-21T08:52:21.490Z,73.51
2018-10-21T08:54:47.807Z,73.80
2018-10-21T08:57:14.124Z,73.94
2018-10-21T08:59:40.463Z,73.46
2018-10-21T09:02:06.870Z,73.34
2018-10-21T09:04:33.131Z,73.17
2018-10-21T09:06:59.491Z,72.60
2018-10-21T09:09:25.799Z,71.94
2018-10-21T09:11:52.181Z,71.35
2018-10-21T09:14:18.513Z,71.56
2018-10-21T09:16:44.881Z,71.22
2018-10-21T09:19:11.165Z,69.93
2018-10-21T09:21:37.479Z,69.80
2018-10-21T09:24:03.847Z,69.84
2018-10-21T09:26:30.219Z,69.99
2018-10-21T09:28:56.534Z,69.41
2018-10-21T09:31:22.870Z,68.71
2018-10-21T09:33:49.188Z,68.52
2018-10-21T09:36:15.519Z,66.94
2018-10-21T09:38:41.847Z,66.71
2018-10-21T09:41:08.168Z,65.50
2018-10-21T09:43:34.484Z,65.29
2018-10-21T09:46:00.858Z,66.14
2018-10-21T09:48:27.162Z,65.42
2018-10-21T09:50:53.464Z,64.48
2018-10-21T09:53:19.790Z,63.07
2018-10-21T09:55:46.108Z,62.18
2018-10-21T09:58:12.518Z,61.06
2018-10-21T10:00:38.825Z,58.49
2018-10-21T10:03:05.198Z,55.72
2018-10-21T10:05:31.572Z,57.12
2018-10-21T10:07:57.883Z,56.16
2018-10-21T10:10:24.198Z,55.52
2018-10-21T10:12:50.577Z,56.65
2018-10-21T10:15:16.889Z,56.12
2018-10-21T10:17:43.290Z,56.02
2018-10-21T10:20:09.545Z,56.58
2018-10-21T10:22:35.872Z,55.19
2018-10-21T10:25:02.198Z,54.70
2018-10-21T10:27:28.517Z,54.40
2018-10-21T10:29:54.849Z,53.26
2018-10-21T10:32:21.166Z,53.47
2018-10-21T10:34:47.571Z,53.34
2018-10-21T10:37:13.948Z,53.19
2018-10-21T10:39:40.188Z,55.43
2018-10-21T10:42:06.607Z,56.28
2018-10-21T10:44:32.833Z,57.20
2018-10-21T10:46:59.149Z,57.53
2018-10-21T10:49:25.483Z,57.22
2018-10-21T10:51:51.815Z,56.57
2018-10-21T10:54:18.141Z,54.59
2018-10-21T10:56:44.489Z,54.18
2018-10-21T10:59:10.827Z,54.86
2018-10-21T11:01:37.155Z,56.96
2018-10-21T11:04:03.498Z,58.00
2018-10-21T11:06:29.820Z,59.28
2018-10-21T11:08:56.133Z,60.53
2018-10-21T11:11:22.475Z,60.63
2018-10-21T11:13:48.822Z,61.22
2018-10-21T11:16:15.207Z,61.92
2018-10-21T11:18:41.471Z,62.26
2018-10-21T11:21:07.795Z,63.35
2018-10-21T11:23:34.172Z,63.76
2018-10-21T11:26:00.503Z,63.98
2018-10-21T11:28:26.833Z,64.01
2018-10-21T11:30:53.165Z,66.79
2018-10-21T11:33:19.492Z,68.32
2018-10-21T11:35:45.795Z,69.10
2018-10-21T11:38:12.137Z,69.69
2018-10-21T11:40:38.503Z,69.60
2018-10-21T11:43:04.813Z,69.76
2018-10-21T11:45:31.197Z,70.35
2018-10-21T11:47:57.549Z,69.95
2018-10-21T11:50:23.847Z,69.70
2018-10-21T11:52:50.171Z,70.16
2018-10-21T11:55:16.558Z,69.81
2018-10-21T11:57:42.835Z,70.19
2018-10-21T12:00:09.193Z,70.12
2018-10-21T12:02:35.510Z,69.98
2018-10-21T12:05:01.838Z,70.55
2018-10-21T12:07:28.155Z,70.31
2018-10-21T12:09:54.509Z,70.54
2018-10-21T12:12:20.814Z,70.76
2018-10-21T12:14:47.134Z,70.95
2018-10-21T12:17:13.515Z,70.49
2018-10-21T12:19:39.878Z,70.51
2018-10-21T12:22:06.196Z,70.82
2018-10-21T12:24:32.506Z,70.90
2018-10-21T12:26:58.835Z,71.15
2018-10-21T12:29:25.169Z,71.24
2018-10-21T12:31:51.497Z,71.87
2018-10-21T12:34:17.906Z,71.65
2018-10-21T12:36:44.151Z,71.83
2018-10-21T12:39:10.522Z,71.30
2018-10-21T12:41:36.841Z,71.50
2018-10-21T12:44:03.201Z,70.89
2018-10-21T12:46:29.524Z,70.77
2018-10-21T12:48:55.877Z,70.62
2018-10-21T12:51:22.256Z,70.08
2018-10-21T12:53:48.579Z,70.13
2018-10-21T12:56:14.953Z,70.03
2018-10-21T12:58:41.297Z,69.71
2018-10-21T13:01:07.750Z,70.01
2018-10-21T13:03:33.946Z,69.92
2018-10-21T13:06:00.302Z,69.99
2018-10-21T13:08:26.646Z,69.94
2018-10-21T13:10:52.976Z,69.86
2018-10-21T13:13:19.330Z,69.65
2018-10-21T13:15:45.641Z,69.62
2018-10-21T13:18:11.963Z,69.57
2018-10-21T13:20:38.281Z,69.50
2018-10-21T13:23:04.612Z,69.63
2018-10-21T13:25:30.944Z,69.92
2018-10-21T13:27:57.280Z,70.06
2018-10-21T13:30:23.599Z,70.06
2018-10-21T13:32:49.922Z,70.44
2018-10-21T13:35:16.249Z,70.52
2018-10-21T13:37:42.569Z,70.66
2018-10-21T13:40:08.983Z,70.43
2018-10-21T13:42:35.256Z,70.75
2018-10-21T13:45:01.556Z,70.95
2018-10-21T13:47:27.882Z,71.22
2018-10-21T13:49:54.205Z,71.18
2018-10-21T13:52:20.528Z,71.30
2018-10-21T13:54:46.853Z,71.61
2018-10-21T13:57:13.171Z,71.58
2018-10-21T13:59:39.491Z,72.00
2018-10-21T14:02:05.818Z,71.97
2018-10-21T14:04:32.156Z,72.27
2018-10-21T14:06:58.537Z,72.24
2018-10-21T14:09:24.803Z,72.39
2018-10-21T14:11:51.132Z,72.01
2018-10-21T14:14:17.463Z,72.46
2018-10-21T14:16:43.870Z,72.66
2018-10-21T14:19:10.107Z,72.92
2018-10-21T14:21:36.435Z,73.02
2018-10-21T14:24:02.794Z,73.98
2018-10-21T14:26:29.094Z,74.19
2018-10-21T14:28:55.410Z,74.37
2018-10-21T14:31:21.732Z,74.99
2018-10-21T14:33:48.046Z,74.25
2018-10-21T14:36:14.425Z,73.84
2018-10-21T14:38:40.752Z,73.41
2018-10-21T14:41:07.077Z,73.70
2018-10-21T14:43:33.407Z,73.35
2018-10-21T14:45:59.917Z,73.66
2018-10-21T14:48:26.071Z,73.47
2018-10-21T14:50:52.386Z,73.37
2018-10-21T14:53:18.725Z,73.54
2018-10-21T14:55:45.111Z,73.71
2018-10-21T14:58:11.441Z,73.94
2018-10-21T15:00:37.899Z,74.11
2018-10-21T15:03:04.177Z,73.87
2018-10-21T15:05:30.496Z,74.59
2018-10-21T15:07:56.798Z,74.77
2018-10-21T15:10:23.108Z,74.60
2018-10-21T15:12:49.449Z,74.61
2018-10-21T15:15:15.812Z,74.89
2018-10-21T15:17:42.126Z,74.65
2018-10-21T15:20:08.512Z,74.84
2018-10-21T15:22:34.844Z,74.32
2018-10-21T15:25:01.186Z,74.40
2018-10-21T15:27:27.518Z,74.48
2018-10-21T15:29:53.899Z,74.82
2018-10-21T15:32:21.541Z,75.29
2018-10-21T15:34:46.676Z,75.62
2018-10-21T15:37:12.965Z,76.00
2018-10-21T15:39:39.338Z,76.64
2018-10-21T15:42:05.644Z,76.47
2018-10-21T15:44:31.971Z,76.63
2018-10-21T15:46:58.289Z,76.99
2018-10-21T15:49:24.615Z,77.39
2018-10-21T15:51:50.992Z,78.32
2018-10-21T15:54:17.274Z,78.37
2018-10-21T15:56:43.605Z,78.73
2018-10-21T15:59:09.941Z,79.19
2018-10-21T16:01:36.268Z,79.38
2018-10-21T16:04:02.657Z,79.45
2018-10-21T16:06:28.911Z,79.53
2018-10-21T16:08:55.252Z,80.02
2018-10-21T16:11:21.579Z,79.85
2018-10-21T16:13:47.962Z,80.00
2018-10-21T16:16:14.286Z,80.12
2018-10-21T16:18:40.585Z,79.83
2018-10-21T16:21:06.907Z,80.48
2018-10-21T16:23:33.237Z,80.22
2018-10-21T16:25:59.648Z,80.79
2018-10-21T16:28:25.981Z,80.36
2018-10-21T16:30:52.277Z,81.91
2018-10-21T16:33:20.567Z,82.45
2018-10-21T16:35:44.934Z,83.12
2018-10-21T16:38:11.306Z,82.85
2018-10-21T16:40:37.594Z,83.31
2018-10-21T16:43:03.929Z,83.23
2018-10-21T16:45:30.259Z,83.49
2018-10-21T16:47:56.640Z,82.82
2018-10-21T16:50:22.946Z,82.77
2018-10-21T16:52:49.341Z,83.37
2018-10-21T16:55:15.698Z,83.58
2018-10-21T16:57:42.067Z,83.21
2018-10-21T17:00:08.423Z,83.19
2018-10-21T17:02:34.705Z,82.69
2018-10-21T17:05:01.030Z,81.82
2018-10-21T17:07:27.365Z,81.77
2018-10-21T17:09:54.052Z,81.68
2018-10-21T17:12:20.143Z,81.53
2018-10-21T17:14:46.472Z,81.61
2018-10-21T17:17:12.846Z,81.38
2018-10-21T17:19:39.114Z,81.27
2018-10-21T17:22:05.462Z,81.64
2018-10-21T17:24:31.822Z,81.85
2018-10-21T17:26:58.156Z,81.92
2018-10-21T17:29:24.493Z,82.15
2018-10-21T17:31:51.177Z,81.93
2018-10-21T17:34:17.582Z,82.18
2018-10-21T17:36:43.839Z,81.88
2018-10-21T17:39:10.159Z,82.04
2018-10-21T17:41:36.497Z,82.31
2018-10-21T17:44:02.823Z,81.85
2018-10-21T17:46:29.192Z,81.98
2018-10-21T17:48:56.505Z,81.79
2018-10-21T17:51:23.166Z,81.33
2018-10-21T17:53:49.490Z,81.37
2018-10-21T17:56:15.779Z,81.16
2018-10-21T17:58:42.211Z,81.31
2018-10-21T18:01:08.455Z,81.38
2018-10-21T18:03:34.773Z,81.53
2018-10-21T18:06:01.116Z,81.26
2018-10-21T18:08:27.447Z,81.17
2018-10-21T18:10:53.766Z,81.15
2018-10-21T18:13:20.083Z,81.32
2018-10-21T18:15:46.417Z,81.28
2018-10-21T18:18:12.779Z,81.23
2018-10-21T18:20:39.152Z,81.31
2018-10-21T18:23:05.424Z,81.19
2018-10-21T18:25:31.747Z,81.56
2018-10-21T18:27:58.114Z,81.59
2018-10-21T18:30:30.921Z,81.76
2018-10-21T18:32:50.995Z,81.56
2018-10-21T18:35:17.283Z,81.77
2018-10-21T18:37:43.621Z,81.70
2018-10-21T18:40:10.009Z,81.63
2018-10-21T18:42:36.386Z,81.81
2018-10-21T18:45:02.653Z,81.64
2018-10-21T18:47:28.974Z,81.67
2018-10-21T18:49:55.319Z,81.65
2018-10-21T18:52:21.675Z,81.63
2018-10-21T18:54:48.311Z,81.62
2018-10-21T18:57:14.604Z,81.79
2018-10-21T18:59:40.927Z,81.78
2018-10-21T19:02:07.260Z,81.63
2018-10-21T19:04:33.600Z,81.53
2018-10-21T19:06:59.937Z,81.56
2018-10-21T19:09:26.281Z,81.66
2018-10-21T19:11:52.593Z,81.72
2018-10-21T19:14:18.918Z,81.46
2018-10-21T19:16:45.243Z,81.65
2018-10-21T19:19:11.668Z,81.62
2018-10-21T19:21:37.899Z,81.35
2018-10-21T19:24:04.216Z,81.44
2018-10-21T19:26:30.568Z,81.38
2018-10-21T19:28:56.855Z,81.18
2018-10-21T19:31:23.197Z,81.04
2018-10-21T19:33:49.534Z,81.18
2018-10-21T19:36:15.862Z,81.18
2018-10-21T19:38:42.197Z,81.12
2018-10-21T19:41:08.507Z,81.44
2018-10-21T19:43:34.892Z,81.38
2018-10-21T19:46:01.183Z,81.36
2018-10-21T19:48:27.510Z,81.49
2018-10-21T19:50:53.873Z,81.38
2018-10-21T19:53:20.183Z,81.25
2018-10-21T19:55:46.533Z,81.24
2018-10-21T19:58:12.896Z,81.59
2018-10-21T20:00:39.175Z,81.45
2018-10-21T20:03:05.510Z,81.71
2018-10-21T20:05:31.831Z,81.61
2018-10-21T20:07:58.151Z,81.79
2018-10-21T20:10:24.478Z,81.83
2018-10-21T20:12:50.798Z,81.78
2018-10-21T20:15:17.125Z,81.91
2018-10-21T20:17:43.455Z,81.39
2018-10-21T20:20:10.065Z,81.75
2018-10-21T20:22:36.386Z,81.28
2018-10-21T20:25:02.778Z,81.38
2018-10-21T20:27:29.090Z,81.66
2018-10-21T20:29:55.424Z,81.88
2018-10-21T20:32:21.738Z,82.19
2018-10-21T20:34:48.062Z,82.99
2018-10-21T20:37:14.433Z,82.42
2018-10-21T20:39:40.802Z,81.96
2018-10-21T20:42:07.195Z,82.42
2018-10-21T20:44:33.530Z,82.21
2018-10-21T20:46:59.854Z,80.49
2018-10-21T20:49:26.179Z,80.46
2018-10-21T20:51:52.641Z,80.41
2018-10-21T20:54:19.019Z,80.87
2018-10-21T20:56:45.289Z,81.02
2018-10-21T20:59:11.625Z,81.66
2018-10-21T21:01:37.968Z,82.03
2018-10-21T21:04:04.327Z,82.42
2018-10-21T21:06:30.627Z,82.51
2018-10-21T21:08:56.958Z,81.93
2018-10-21T21:11:23.331Z,82.11
2018-10-21T21:13:49.669Z,82.40
2018-10-21T21:16:16.067Z,82.38
2018-10-21T21:18:42.314Z,82.80
2018-10-21T21:21:08.651Z,82.70
2018-10-21T21:23:34.974Z,83.25
2018-10-21T21:26:01.343Z,83.65
2018-10-21T21:28:27.671Z,83.99
2018-10-21T21:30:53.997Z,84.74
2018-10-21T21:33:20.310Z,84.15
2018-10-21T21:35:46.657Z,84.98
2018-10-21T21:38:12.988Z,85.13
2018-10-21T21:40:39.322Z,84.60
2018-10-21T21:43:05.646Z,85.02
2018-10-21T21:45:31.963Z,85.06
2018-10-21T21:47:58.318Z,84.71
2018-10-21T21:50:24.628Z,84.66
2018-10-21T21:52:50.961Z,84.38
2018-10-21T21:55:17.270Z,83.63
2018-10-21T21:57:43.589Z,83.28
2018-10-21T22:00:10.015Z,83.66
2018-10-21T22:02:36.277Z,84.20
2018-10-21T22:05:02.666Z,83.30
2018-10-21T22:07:28.970Z,82.93
2018-10-21T22:09:55.300Z,83.27
2018-10-21T22:12:21.808Z,83.39
2018-10-21T22:14:47.959Z,83.16
2018-10-21T22:17:14.303Z,83.35
2018-10-21T22:19:40.604Z,83.51
2018-10-21T22:22:06.990Z,82.77
2018-10-21T22:24:33.257Z,83.41
2018-10-21T22:26:59.560Z,83.24
2018-10-21T22:29:25.868Z,82.81
2018-10-21T22:31:52.178Z,83.45
2018-10-21T22:34:18.515Z,83.61
2018-10-21T22:36:44.838Z,82.94
2018-10-21T22:39:11.107Z,82.32
2018-10-21T22:41:37.505Z,82.55
2018-10-21T22:44:03.831Z,82.52
2018-10-21T22:46:30.177Z,81.99
2018-10-21T22:48:56.446Z,81.61
2018-10-21T22:51:22.762Z,82.04
2018-10-21T22:53:49.060Z,82.04
2018-10-21T22:56:15.398Z,81.11
2018-10-21T22:58:41.742Z,81.23
2018-10-21T23:01:08.109Z,82.20
2018-10-21T23:03:34.406Z,82.03
2018-10-21T23:06:00.744Z,82.37
2018-10-21T23:08:27.078Z,82.47
2018-10-21T23:10:53.405Z,82.69
2018-10-21T23:13:19.780Z,83.76
2018-10-21T23:15:46.101Z,82.22
2018-10-21T23:18:12.469Z,81.74
2018-10-21T23:20:38.739Z,81.71
2018-10-21T23:23:05.042Z,82.11
2018-10-21T23:25:31.348Z,82.44
2018-10-21T23:27:57.671Z,82.89
2018-10-21T23:30:23.999Z,83.68
2018-10-21T23:32:50.336Z,84.00
2018-10-21T23:35:16.680Z,83.28
2018-10-21T23:37:43.011Z,84.19
2018-10-21T23:40:09.402Z,84.60
2018-10-21T23:42:35.705Z,84.12
2018-10-21T23:45:02.070Z,84.45
2018-10-21T23:47:28.362Z,84.97
2018-10-21T23:49:54.687Z,85.02
2018-10-21T23:52:21.071Z,85.35
2018-10-21T23:54:47.311Z,85.33
2018-10-21T23:57:13.648Z,85.77
2018-10-21T23:59:39.985Z,84.73
